sensor_id;sensor_type;location;lat;lon;timestamp;temperature;humidity
77277;DHT22;66330;52.166;9.978;2024-03-17T00:00:05;6.60;99.90
77277;DHT22;66330;52.166;9.978;2024-03-17T00:02:31;6.50;99.90
77277;DHT22;66330;52.166;9.978;2024-03-17T00:04:57;7.00;99.90
77277;DHT22;66330;52.166;9.978;2024-03-17T00:07:23;6.50;99.90
77277;DHT22;66330;52.166;9.978;2024-03-17T00:09:48;6.50;99.90
77277;DHT22;66330;52.166;9.978;2024-03-17T00:12:14;6.70;99.90
77277;DHT22;66330;52.166;9.978;2024-03-17T00:14:39;6.40;99.90
77277;DHT22;66330;52.166;9.978;2024-03-17T00:17:05;6.40;99.90
77277;DHT22;66330;52.166;9.978;2024-03-17T00:19:31;6.30;99.90
77277;DHT22;66330;52.166;9.978;2024-03-17T00:21:56;6.30;99.90
77277;DHT22;66330;52.166;9.978;2024-03-17T00:24:22;6.80;99.90
77277;DHT22;66330;52.166;9.978;2024-03-17T00:26:48;6.20;99.90
77277;DHT22;66330;52.166;9.978;2024-03-17T00:29:14;6.20;99.90
77277;DHT22;66330;52.166;9.978;2024-03-17T00:31:40;6.10;99.90
77277;DHT22;66330;52.166;9.978;2024-03-17T00:34:06;6.10;99.90
77277;DHT22;66330;52.166;9.978;2024-03-17T00:36:32;6.10;99.90
77277;DHT22;66330;52.166;9.978;2024-03-17T00:38:57;6.00;99.90
77277;DHT22;66330;52.166;9.978;2024-03-17T00:41:23;6.10;99.90
77277;DHT22;66330;52.166;9.978;2024-03-17T00:43:49;6.60;99.90
77277;DHT22;66330;52.166;9.978;2024-03-17T00:46:16;5.90;99.90
77277;DHT22;66330;52.166;9.978;2024-03-17T00:48:43;6.60;99.90
77277;DHT22;66330;52.166;9.978;2024-03-17T00:51:09;6.50;99.90
77277;DHT22;66330;52.166;9.978;2024-03-17T00:53:34;5.90;99.90
77277;DHT22;66330;52.166;9.978;2024-03-17T00:56:00;6.40;99.90
77277;DHT22;66330;52.166;9.978;2024-03-17T00:58:26;5.90;99.90
77277;DHT22;66330;52.166;9.978;2024-03-17T01:00:52;6.00;99.90
77277;DHT22;66330;52.166;9.978;2024-03-17T01:03:18;6.40;99.90
77277;DHT22;66330;52.166;9.978;2024-03-17T01:05:44;6.50;99.90
77277;DHT22;66330;52.166;9.978;2024-03-17T01:08:12;5.80;99.90
77277;DHT22;66330;52.166;9.978;2024-03-17T01:10:39;5.80;99.90
77277;DHT22;66330;52.166;9.978;2024-03-17T01:13:06;5.70;99.90
77277;DHT22;66330;52.166;9.978;2024-03-17T01:15:33;5.70;99.90
77277;DHT22;66330;52.166;9.978;2024-03-17T01:17:58;5.70;99.90
77277;DHT22;66330;52.166;9.978;2024-03-17T01:20:25;5.60;99.90
77277;DHT22;66330;52.166;9.978;2024-03-17T01:22:51;6.30;99.90
77277;DHT22;66330;52.166;9.978;2024-03-17T01:25:16;6.20;99.90
77277;DHT22;66330;52.166;9.978;2024-03-17T01:27:42;5.60;99.90
77277;DHT22;66330;52.166;9.978;2024-03-17T01:30:09;5.50;99.90
77277;DHT22;66330;52.166;9.978;2024-03-17T01:32:35;5.50;99.90
77277;DHT22;66330;52.166;9.978;2024-03-17T01:35:01;6.10;99.90
77277;DHT22;66330;52.166;9.978;2024-03-17T01:37:26;5.50;99.90
77277;DHT22;66330;52.166;9.978;2024-03-17T01:39:52;5.50;99.90
77277;DHT22;66330;52.166;9.978;2024-03-17T01:42:18;6.10;99.90
77277;DHT22;66330;52.166;9.978;2024-03-17T01:44:43;5.40;99.90
77277;DHT22;66330;52.166;9.978;2024-03-17T01:47:09;6.00;99.90
77277;DHT22;66330;52.166;9.978;2024-03-17T01:49:35;6.00;99.90
77277;DHT22;66330;52.166;9.978;2024-03-17T01:52:02;5.30;99.90
77277;DHT22;66330;52.166;9.978;2024-03-17T01:54:29;5.80;99.90
77277;DHT22;66330;52.166;9.978;2024-03-17T01:56:55;5.30;99.90
77277;DHT22;66330;52.166;9.978;2024-03-17T01:59:21;5.30;99.90
77277;DHT22;66330;52.166;9.978;2024-03-17T02:01:46;5.90;99.90
77277;DHT22;66330;52.166;9.978;2024-03-17T02:04:12;5.20;99.90
77277;DHT22;66330;52.166;9.978;2024-03-17T02:06:37;5.90;99.90
77277;DHT22;66330;52.166;9.978;2024-03-17T02:09:04;5.90;99.90
77277;DHT22;66330;52.166;9.978;2024-03-17T02:11:31;5.80;99.90
77277;DHT22;66330;52.166;9.978;2024-03-17T02:13:58;5.70;99.90
77277;DHT22;66330;52.166;9.978;2024-03-17T02:16:25;5.60;99.90
77277;DHT22;66330;52.166;9.978;2024-03-17T02:18:57;4.90;99.90
77277;DHT22;66330;52.166;9.978;2024-03-17T02:21:24;5.70;99.90
77277;DHT22;66330;52.166;9.978;2024-03-17T02:23:50;5.00;99.90
77277;DHT22;66330;52.166;9.978;2024-03-17T02:26:17;5.10;99.90
77277;DHT22;66330;52.166;9.978;2024-03-17T02:28:45;5.00;99.90
77277;DHT22;66330;52.166;9.978;2024-03-17T02:31:12;5.00;99.90
77277;DHT22;66330;52.166;9.978;2024-03-17T02:33:38;5.00;99.90
77277;DHT22;66330;52.166;9.978;2024-03-17T02:36:05;5.50;99.90
77277;DHT22;66330;52.166;9.978;2024-03-17T02:38:35;5.60;99.90
77277;DHT22;66330;52.166;9.978;2024-03-17T02:41:20;5.50;99.90
77277;DHT22;66330;52.166;9.978;2024-03-17T02:43:46;4.80;99.90
77277;DHT22;66330;52.166;9.978;2024-03-17T02:46:13;5.40;99.90
77277;DHT22;66330;52.166;9.978;2024-03-17T02:48:40;5.30;99.90
77277;DHT22;66330;52.166;9.978;2024-03-17T02:51:11;4.80;99.90
77277;DHT22;66330;52.166;9.978;2024-03-17T02:53:38;5.30;99.90
77277;DHT22;66330;52.166;9.978;2024-03-17T02:56:05;5.30;99.90
77277;DHT22;66330;52.166;9.978;2024-03-17T02:58:33;4.70;99.90
77277;DHT22;66330;52.166;9.978;2024-03-17T03:00:58;4.60;99.90
77277;DHT22;66330;52.166;9.978;2024-03-17T03:03:24;4.90;99.90
77277;DHT22;66330;52.166;9.978;2024-03-17T03:05:50;5.20;99.90
77277;DHT22;66330;52.166;9.978;2024-03-17T03:08:15;5.20;99.90
77277;DHT22;66330;52.166;9.978;2024-03-17T03:10:44;5.20;99.90
77277;DHT22;66330;52.166;9.978;2024-03-17T03:13:09;5.30;99.90
77277;DHT22;66330;52.166;9.978;2024-03-17T03:15:35;5.30;99.90
77277;DHT22;66330;52.166;9.978;2024-03-17T03:18:01;5.10;99.90
77277;DHT22;66330;52.166;9.978;2024-03-17T03:20:26;4.60;99.90
77277;DHT22;66330;52.166;9.978;2024-03-17T03:22:53;4.60;99.90
77277;DHT22;66330;52.166;9.978;2024-03-17T03:25:19;5.20;99.90
77277;DHT22;66330;52.166;9.978;2024-03-17T03:27:45;5.00;99.90
77277;DHT22;66330;52.166;9.978;2024-03-17T03:30:11;4.60;99.90
77277;DHT22;66330;52.166;9.978;2024-03-17T03:32:37;4.50;99.90
77277;DHT22;66330;52.166;9.978;2024-03-17T03:35:04;4.70;99.90
77277;DHT22;66330;52.166;9.978;2024-03-17T03:37:31;4.40;99.90
77277;DHT22;66330;52.166;9.978;2024-03-17T03:39:57;5.00;99.90
77277;DHT22;66330;52.166;9.978;2024-03-17T03:42:24;5.20;99.90
77277;DHT22;66330;52.166;9.978;2024-03-17T03:44:49;5.00;99.90
77277;DHT22;66330;52.166;9.978;2024-03-17T03:47:15;4.90;99.90
77277;DHT22;66330;52.166;9.978;2024-03-17T03:49:41;4.40;99.90
77277;DHT22;66330;52.166;9.978;2024-03-17T03:52:06;4.30;99.90
77277;DHT22;66330;52.166;9.978;2024-03-17T03:54:33;4.80;99.90
77277;DHT22;66330;52.166;9.978;2024-03-17T03:56:58;5.00;99.90
77277;DHT22;66330;52.166;9.978;2024-03-17T03:59:24;4.80;99.90
77277;DHT22;66330;52.166;9.978;2024-03-17T04:01:50;4.40;99.90
77277;DHT22;66330;52.166;9.978;2024-03-17T04:04:16;4.90;99.90
77277;DHT22;66330;52.166;9.978;2024-03-17T04:06:41;5.00;99.90
77277;DHT22;66330;52.166;9.978;2024-03-17T04:09:07;5.00;99.90
77277;DHT22;66330;52.166;9.978;2024-03-17T04:11:34;4.40;99.90
77277;DHT22;66330;52.166;9.978;2024-03-17T04:14:01;4.50;99.90
77277;DHT22;66330;52.166;9.978;2024-03-17T04:16:27;5.00;99.90
77277;DHT22;66330;52.166;9.978;2024-03-17T04:18:53;5.00;99.90
77277;DHT22;66330;52.166;9.978;2024-03-17T04:21:19;5.00;99.90
77277;DHT22;66330;52.166;9.978;2024-03-17T04:23:46;5.00;99.90
77277;DHT22;66330;52.166;9.978;2024-03-17T04:26:12;4.70;99.90
77277;DHT22;66330;52.166;9.978;2024-03-17T04:28:38;4.60;99.90
77277;DHT22;66330;52.166;9.978;2024-03-17T04:31:06;5.10;99.90
77277;DHT22;66330;52.166;9.978;2024-03-17T04:33:33;4.60;99.90
77277;DHT22;66330;52.166;9.978;2024-03-17T04:35:58;5.20;99.90
77277;DHT22;66330;52.166;9.978;2024-03-17T04:38:24;5.30;99.90
77277;DHT22;66330;52.166;9.978;2024-03-17T04:40:50;4.80;99.90
77277;DHT22;66330;52.166;9.978;2024-03-17T04:43:17;4.60;99.90
77277;DHT22;66330;52.166;9.978;2024-03-17T04:45:42;5.20;99.90
77277;DHT22;66330;52.166;9.978;2024-03-17T04:48:10;4.70;99.90
77277;DHT22;66330;52.166;9.978;2024-03-17T04:50:35;5.20;99.90
77277;DHT22;66330;52.166;9.978;2024-03-17T04:53:01;5.20;99.90
77277;DHT22;66330;52.166;9.978;2024-03-17T04:55:26;5.40;99.90
77277;DHT22;66330;52.166;9.978;2024-03-17T04:57:52;4.90;99.90
77277;DHT22;66330;52.166;9.978;2024-03-17T05:00:18;5.40;99.90
77277;DHT22;66330;52.166;9.978;2024-03-17T05:02:45;5.30;99.90
77277;DHT22;66330;52.166;9.978;2024-03-17T05:05:10;4.80;99.90
77277;DHT22;66330;52.166;9.978;2024-03-17T05:07:36;5.50;99.90
77277;DHT22;66330;52.166;9.978;2024-03-17T05:10:03;5.40;99.90
77277;DHT22;66330;52.166;9.978;2024-03-17T05:12:29;5.20;99.90
77277;DHT22;66330;52.166;9.978;2024-03-17T05:14:55;5.40;99.90
77277;DHT22;66330;52.166;9.978;2024-03-17T05:17:20;4.90;99.90
77277;DHT22;66330;52.166;9.978;2024-03-17T05:19:46;5.60;99.90
77277;DHT22;66330;52.166;9.978;2024-03-17T05:22:11;5.60;99.90
77277;DHT22;66330;52.166;9.978;2024-03-17T05:24:37;5.10;99.90
77277;DHT22;66330;52.166;9.978;2024-03-17T05:27:03;5.50;99.90
77277;DHT22;66330;52.166;9.978;2024-03-17T05:29:29;5.10;99.90
77277;DHT22;66330;52.166;9.978;2024-03-17T05:31:54;5.50;99.90
77277;DHT22;66330;52.166;9.978;2024-03-17T05:34:21;4.90;99.90
77277;DHT22;66330;52.166;9.978;2024-03-17T05:36:46;5.00;99.90
77277;DHT22;66330;52.166;9.978;2024-03-17T05:39:12;5.50;99.90
77277;DHT22;66330;52.166;9.978;2024-03-17T05:41:38;5.60;99.90
77277;DHT22;66330;52.166;9.978;2024-03-17T05:44:04;6.90;99.90
77277;DHT22;66330;52.166;9.978;2024-03-17T05:46:30;5.60;99.90
77277;DHT22;66330;52.166;9.978;2024-03-17T05:48:56;5.80;99.90
77277;DHT22;66330;52.166;9.978;2024-03-17T05:51:22;5.70;99.90
77277;DHT22;66330;52.166;9.978;2024-03-17T05:53:47;5.10;99.90
77277;DHT22;66330;52.166;9.978;2024-03-17T05:56:14;5.60;99.90
77277;DHT22;66330;52.166;9.978;2024-03-17T05:58:41;5.20;99.90
77277;DHT22;66330;52.166;9.978;2024-03-17T06:01:07;5.20;99.90
77277;DHT22;66330;52.166;9.978;2024-03-17T06:03:36;5.40;99.90
77277;DHT22;66330;52.166;9.978;2024-03-17T06:06:02;5.90;99.90
77277;DHT22;66330;52.166;9.978;2024-03-17T06:08:28;5.30;99.90
77277;DHT22;66330;52.166;9.978;2024-03-17T06:10:54;5.90;99.90
77277;DHT22;66330;52.166;9.978;2024-03-17T06:13:22;5.30;99.90
77277;DHT22;66330;52.166;9.978;2024-03-17T06:15:48;5.40;99.90
77277;DHT22;66330;52.166;9.978;2024-03-17T06:18:14;5.40;99.90
77277;DHT22;66330;52.166;9.978;2024-03-17T06:20:43;6.10;99.90
77277;DHT22;66330;52.166;9.978;2024-03-17T06:23:10;6.00;99.90
77277;DHT22;66330;52.166;9.978;2024-03-17T06:25:46;6.10;99.90
77277;DHT22;66330;52.166;9.978;2024-03-17T06:28:13;5.60;99.90
77277;DHT22;66330;52.166;9.978;2024-03-17T06:30:42;6.30;99.90
77277;DHT22;66330;52.166;9.978;2024-03-17T06:33:11;5.80;99.90
77277;DHT22;66330;52.166;9.978;2024-03-17T06:35:37;6.50;99.90
77277;DHT22;66330;52.166;9.978;2024-03-17T06:38:02;6.50;99.90
77277;DHT22;66330;52.166;9.978;2024-03-17T06:40:28;6.60;99.90
77277;DHT22;66330;52.166;9.978;2024-03-17T06:42:54;6.00;99.90
77277;DHT22;66330;52.166;9.978;2024-03-17T06:45:20;6.10;99.90
77277;DHT22;66330;52.166;9.978;2024-03-17T06:47:49;6.20;99.90
77277;DHT22;66330;52.166;9.978;2024-03-17T06:50:15;6.80;99.90
77277;DHT22;66330;52.166;9.978;2024-03-17T06:52:41;6.30;99.90
77277;DHT22;66330;52.166;9.978;2024-03-17T06:55:07;6.30;99.90
77277;DHT22;66330;52.166;9.978;2024-03-17T06:57:33;6.40;99.90
77277;DHT22;66330;52.166;9.978;2024-03-17T07:00:02;6.50;99.90
77277;DHT22;66330;52.166;9.978;2024-03-17T07:02:31;6.50;99.90
77277;DHT22;66330;52.166;9.978;2024-03-17T07:04:57;6.60;99.90
77277;DHT22;66330;52.166;9.978;2024-03-17T07:07:26;6.70;99.90
77277;DHT22;66330;52.166;9.978;2024-03-17T07:09:51;6.70;99.90
77277;DHT22;66330;52.166;9.978;2024-03-17T07:12:17;6.80;99.90
77277;DHT22;66330;52.166;9.978;2024-03-17T07:14:42;6.90;99.90
77277;DHT22;66330;52.166;9.978;2024-03-17T07:17:08;6.80;99.90
77277;DHT22;66330;52.166;9.978;2024-03-17T07:19:33;7.00;99.90
77277;DHT22;66330;52.166;9.978;2024-03-17T07:22:01;7.20;99.90
77277;DHT22;66330;52.166;9.978;2024-03-17T07:24:27;7.10;99.90
77277;DHT22;66330;52.166;9.978;2024-03-17T07:26:53;7.20;99.90
77277;DHT22;66330;52.166;9.978;2024-03-17T07:29:18;7.30;99.90
77277;DHT22;66330;52.166;9.978;2024-03-17T07:31:47;7.40;99.90
77277;DHT22;66330;52.166;9.978;2024-03-17T07:34:12;7.50;99.90
77277;DHT22;66330;52.166;9.978;2024-03-17T07:36:38;7.60;99.90
77277;DHT22;66330;52.166;9.978;2024-03-17T07:39:05;7.60;99.90
77277;DHT22;66330;52.166;9.978;2024-03-17T07:41:32;7.70;99.90
77277;DHT22;66330;52.166;9.978;2024-03-17T07:43:58;7.80;99.90
77277;DHT22;66330;52.166;9.978;2024-03-17T07:46:24;7.80;99.90
77277;DHT22;66330;52.166;9.978;2024-03-17T07:48:50;8.30;99.90
77277;DHT22;66330;52.166;9.978;2024-03-17T07:51:17;7.90;99.90
77277;DHT22;66330;52.166;9.978;2024-03-17T07:53:44;8.60;99.90
77277;DHT22;66330;52.166;9.978;2024-03-17T07:56:12;7.80;99.90
77277;DHT22;66330;52.166;9.978;2024-03-17T07:58:39;8.30;99.90
77277;DHT22;66330;52.166;9.978;2024-03-17T08:01:10;8.40;99.90
77277;DHT22;66330;52.166;9.978;2024-03-17T08:03:38;9.20;99.90
77277;DHT22;66330;52.166;9.978;2024-03-17T08:06:05;8.60;99.90
77277;DHT22;66330;52.166;9.978;2024-03-17T08:08:31;8.90;99.90
77277;DHT22;66330;52.166;9.978;2024-03-17T08:10:57;8.80;99.90
77277;DHT22;66330;52.166;9.978;2024-03-17T08:13:23;8.70;99.90
77277;DHT22;66330;52.166;9.978;2024-03-17T08:15:57;9.40;99.90
77277;DHT22;66330;52.166;9.978;2024-03-17T08:18:22;9.10;99.90
77277;DHT22;66330;52.166;9.978;2024-03-17T08:20:48;8.90;99.90
77277;DHT22;66330;52.166;9.978;2024-03-17T08:23:14;9.50;99.90
77277;DHT22;66330;52.166;9.978;2024-03-17T08:25:39;9.90;99.90
77277;DHT22;66330;52.166;9.978;2024-03-17T08:28:06;9.40;99.90
77277;DHT22;66330;52.166;9.978;2024-03-17T08:30:32;9.40;99.90
77277;DHT22;66330;52.166;9.978;2024-03-17T08:32:59;9.50;99.90
77277;DHT22;66330;52.166;9.978;2024-03-17T08:35:24;10.10;99.90
77277;DHT22;66330;52.166;9.978;2024-03-17T08:37:50;9.80;99.90
77277;DHT22;66330;52.166;9.978;2024-03-17T08:40:22;10.00;99.90
77277;DHT22;66330;52.166;9.978;2024-03-17T08:42:48;10.00;99.90
77277;DHT22;66330;52.166;9.978;2024-03-17T08:45:14;10.00;99.90
77277;DHT22;66330;52.166;9.978;2024-03-17T08:47:39;10.00;99.90
77277;DHT22;66330;52.166;9.978;2024-03-17T08:50:05;10.50;99.90
77277;DHT22;66330;52.166;9.978;2024-03-17T08:52:34;10.20;99.90
77277;DHT22;66330;52.166;9.978;2024-03-17T08:54:59;10.30;99.90
77277;DHT22;66330;52.166;9.978;2024-03-17T08:57:25;10.40;99.90
77277;DHT22;66330;52.166;9.978;2024-03-17T08:59:51;10.50;99.90
77277;DHT22;66330;52.166;9.978;2024-03-17T09:02:20;10.70;99.90
77277;DHT22;66330;52.166;9.978;2024-03-17T09:04:49;10.70;99.90
77277;DHT22;66330;52.166;9.978;2024-03-17T09:07:14;10.80;99.90
77277;DHT22;66330;52.166;9.978;2024-03-17T09:09:43;10.90;99.90
77277;DHT22;66330;52.166;9.978;2024-03-17T09:12:08;11.00;99.90
77277;DHT22;66330;52.166;9.978;2024-03-17T09:14:34;11.10;99.90
77277;DHT22;66330;52.166;9.978;2024-03-17T09:17:00;11.30;99.90
77277;DHT22;66330;52.166;9.978;2024-03-17T09:19:25;11.30;99.90
77277;DHT22;66330;52.166;9.978;2024-03-17T09:21:51;11.50;99.90
77277;DHT22;66330;52.166;9.978;2024-03-17T09:24:17;11.60;99.90
77277;DHT22;66330;52.166;9.978;2024-03-17T09:26:42;11.70;99.90
77277;DHT22;66330;52.166;9.978;2024-03-17T09:29:08;12.80;99.90
77277;DHT22;66330;52.166;9.978;2024-03-17T09:31:33;11.80;99.90
77277;DHT22;66330;52.166;9.978;2024-03-17T09:34:01;12.00;99.90
77277;DHT22;66330;52.166;9.978;2024-03-17T09:36:27;12.10;99.90
77277;DHT22;66330;52.166;9.978;2024-03-17T09:38:52;12.10;99.90
77277;DHT22;66330;52.166;9.978;2024-03-17T09:41:25;12.40;99.90
77277;DHT22;66330;52.166;9.978;2024-03-17T09:43:54;12.60;99.90
77277;DHT22;66330;52.166;9.978;2024-03-17T09:46:20;12.80;99.90
77277;DHT22;66330;52.166;9.978;2024-03-17T09:48:46;13.00;99.90
77277;DHT22;66330;52.166;9.978;2024-03-17T09:51:30;13.10;99.90
77277;DHT22;66330;52.166;9.978;2024-03-17T09:53:57;13.30;99.90
77277;DHT22;66330;52.166;9.978;2024-03-17T09:56:22;13.50;99.90
77277;DHT22;66330;52.166;9.978;2024-03-17T09:58:50;13.70;99.90
77277;DHT22;66330;52.166;9.978;2024-03-17T10:01:16;14.00;99.90
77277;DHT22;66330;52.166;9.978;2024-03-17T10:03:52;14.30;99.90
77277;DHT22;66330;52.166;9.978;2024-03-17T10:06:21;14.60;99.90
77277;DHT22;66330;52.166;9.978;2024-03-17T10:08:50;14.90;99.90
77277;DHT22;66330;52.166;9.978;2024-03-17T10:11:18;14.90;99.90
77277;DHT22;66330;52.166;9.978;2024-03-17T10:13:44;15.00;99.90
77277;DHT22;66330;52.166;9.978;2024-03-17T10:16:21;15.10;99.90
77277;DHT22;66330;52.166;9.978;2024-03-17T10:18:48;15.20;99.90
77277;DHT22;66330;52.166;9.978;2024-03-17T10:21:26;15.20;99.90
77277;DHT22;66330;52.166;9.978;2024-03-17T10:24:12;15.10;99.90
77277;DHT22;66330;52.166;9.978;2024-03-17T10:26:41;15.00;99.90
77277;DHT22;66330;52.166;9.978;2024-03-17T10:29:22;14.90;99.90
77277;DHT22;66330;52.166;9.978;2024-03-17T10:31:55;14.90;99.90
77277;DHT22;66330;52.166;9.978;2024-03-17T10:34:23;14.90;99.90
77277;DHT22;66330;52.166;9.978;2024-03-17T10:37:20;15.30;99.90
77277;DHT22;66330;52.166;9.978;2024-03-17T10:39:51;15.00;99.90
77277;DHT22;66330;52.166;9.978;2024-03-17T10:42:25;15.20;99.90
77277;DHT22;66330;52.166;9.978;2024-03-17T10:44:51;15.20;99.90
77277;DHT22;66330;52.166;9.978;2024-03-17T10:47:27;15.20;99.90
77277;DHT22;66330;52.166;9.978;2024-03-17T10:49:54;15.70;99.90
77277;DHT22;66330;52.166;9.978;2024-03-17T10:52:21;15.60;99.90
77277;DHT22;66330;52.166;9.978;2024-03-17T10:54:50;15.10;99.90
77277;DHT22;66330;52.166;9.978;2024-03-17T11:00:02;15.00;99.90
77277;DHT22;66330;52.166;9.978;2024-03-17T11:02:31;14.90;99.90
77277;DHT22;66330;52.166;9.978;2024-03-17T11:07:28;14.80;99.90
77277;DHT22;66330;52.166;9.978;2024-03-17T11:09:56;14.70;99.90
77277;DHT22;66330;52.166;9.978;2024-03-17T11:17:51;15.20;99.90
77277;DHT22;66330;52.166;9.978;2024-03-17T11:20:26;14.50;99.90
77277;DHT22;66330;52.166;9.978;2024-03-17T11:22:55;14.70;99.90
77277;DHT22;66330;52.166;9.978;2024-03-17T11:39:01;16.20;99.90
77277;DHT22;66330;52.166;9.978;2024-03-17T11:46:54;17.20;99.90
77277;DHT22;66330;52.166;9.978;2024-03-17T11:49:33;17.50;99.90
77277;DHT22;66330;52.166;9.978;2024-03-17T11:52:03;17.60;99.90
77277;DHT22;66330;52.166;9.978;2024-03-17T11:54:30;17.70;99.90
77277;DHT22;66330;52.166;9.978;2024-03-17T11:57:01;18.00;99.90
77277;DHT22;66330;52.166;9.978;2024-03-17T11:59:27;18.00;99.90
77277;DHT22;66330;52.166;9.978;2024-03-17T12:01:52;18.10;99.90
77277;DHT22;66330;52.166;9.978;2024-03-17T12:04:20;18.30;99.90
77277;DHT22;66330;52.166;9.978;2024-03-17T12:06:54;18.50;99.90
77277;DHT22;66330;52.166;9.978;2024-03-17T12:09:28;18.60;99.90
77277;DHT22;66330;52.166;9.978;2024-03-17T12:12:04;18.80;99.90
77277;DHT22;66330;52.166;9.978;2024-03-17T12:14:31;18.70;99.90
77277;DHT22;66330;52.166;9.978;2024-03-17T12:16:59;18.50;99.90
77277;DHT22;66330;52.166;9.978;2024-03-17T12:19:25;18.40;99.90
77277;DHT22;66330;52.166;9.978;2024-03-17T12:21:55;18.30;99.90
77277;DHT22;66330;52.166;9.978;2024-03-17T12:24:24;18.30;99.90
77277;DHT22;66330;52.166;9.978;2024-03-17T12:26:51;18.20;99.90
77277;DHT22;66330;52.166;9.978;2024-03-17T12:29:32;18.10;99.90
77277;DHT22;66330;52.166;9.978;2024-03-17T12:32:04;17.80;99.90
77277;DHT22;66330;52.166;9.978;2024-03-17T12:34:34;17.50;99.90
77277;DHT22;66330;52.166;9.978;2024-03-17T12:37:00;17.30;99.90
77277;DHT22;66330;52.166;9.978;2024-03-17T12:39:30;17.00;99.90
77277;DHT22;66330;52.166;9.978;2024-03-17T12:42:03;17.40;99.90
77277;DHT22;66330;52.166;9.978;2024-03-17T12:44:33;17.20;99.90
77277;DHT22;66330;52.166;9.978;2024-03-17T12:47:00;17.30;99.90
77277;DHT22;66330;52.166;9.978;2024-03-17T12:49:27;17.60;99.90
77277;DHT22;66330;52.166;9.978;2024-03-17T12:51:53;17.70;99.90
77277;DHT22;66330;52.166;9.978;2024-03-17T12:54:24;17.90;99.90
77277;DHT22;66330;52.166;9.978;2024-03-17T12:57:06;18.00;99.90
77277;DHT22;66330;52.166;9.978;2024-03-17T12:59:51;18.20;99.90
77277;DHT22;66330;52.166;9.978;2024-03-17T13:02:44;18.60;99.90
77277;DHT22;66330;52.166;9.978;2024-03-17T13:05:19;18.50;99.90
77277;DHT22;66330;52.166;9.978;2024-03-17T13:07:49;18.60;99.90
77277;DHT22;66330;52.166;9.978;2024-03-17T13:10:16;18.70;99.90
77277;DHT22;66330;52.166;9.978;2024-03-17T13:12:42;18.80;99.90
77277;DHT22;66330;52.166;9.978;2024-03-17T13:15:16;18.60;99.90
77277;DHT22;66330;52.166;9.978;2024-03-17T13:17:44;18.90;99.90
77277;DHT22;66330;52.166;9.978;2024-03-17T13:20:14;18.80;99.90
77277;DHT22;66330;52.166;9.978;2024-03-17T13:22:44;19.10;99.90
77277;DHT22;66330;52.166;9.978;2024-03-17T13:25:16;18.60;99.90
77277;DHT22;66330;52.166;9.978;2024-03-17T13:27:45;18.90;99.90
77277;DHT22;66330;52.166;9.978;2024-03-17T13:30:13;18.80;99.90
77277;DHT22;66330;52.166;9.978;2024-03-17T13:32:39;18.80;99.90
77277;DHT22;66330;52.166;9.978;2024-03-17T13:35:13;18.90;99.90
77277;DHT22;66330;52.166;9.978;2024-03-17T13:37:39;18.70;99.90
77277;DHT22;66330;52.166;9.978;2024-03-17T13:40:05;18.60;99.90
77277;DHT22;66330;52.166;9.978;2024-03-17T13:42:31;18.60;99.90
77277;DHT22;66330;52.166;9.978;2024-03-17T13:44:57;18.50;99.90
77277;DHT22;66330;52.166;9.978;2024-03-17T13:47:23;19.20;99.90
77277;DHT22;66330;52.166;9.978;2024-03-17T13:49:48;18.50;99.90
77277;DHT22;66330;52.166;9.978;2024-03-17T13:52:14;18.40;99.90
77277;DHT22;66330;52.166;9.978;2024-03-17T13:54:39;18.30;99.90
77277;DHT22;66330;52.166;9.978;2024-03-17T13:57:05;18.20;99.90
77277;DHT22;66330;52.166;9.978;2024-03-17T13:59:31;18.20;99.90
77277;DHT22;66330;52.166;9.978;2024-03-17T14:01:57;18.30;99.90
77277;DHT22;66330;52.166;9.978;2024-03-17T14:04:23;18.30;99.90
77277;DHT22;66330;52.166;9.978;2024-03-17T14:06:48;18.90;99.90
77277;DHT22;66330;52.166;9.978;2024-03-17T14:09:16;18.50;99.90
77277;DHT22;66330;52.166;9.978;2024-03-17T14:11:44;18.50;99.90
77277;DHT22;66330;52.166;9.978;2024-03-17T14:14:14;18.50;99.90
77277;DHT22;66330;52.166;9.978;2024-03-17T14:16:39;18.50;99.90
77277;DHT22;66330;52.166;9.978;2024-03-17T14:19:06;18.50;99.90
77277;DHT22;66330;52.166;9.978;2024-03-17T14:21:32;18.70;99.90
77277;DHT22;66330;52.166;9.978;2024-03-17T14:23:58;18.50;99.90
77277;DHT22;66330;52.166;9.978;2024-03-17T14:26:25;18.30;99.90
77277;DHT22;66330;52.166;9.978;2024-03-17T14:28:50;18.30;99.90
77277;DHT22;66330;52.166;9.978;2024-03-17T14:31:17;18.10;99.90
77277;DHT22;66330;52.166;9.978;2024-03-17T14:33:43;17.90;99.90
77277;DHT22;66330;52.166;9.978;2024-03-17T14:36:09;17.80;99.90
77277;DHT22;66330;52.166;9.978;2024-03-17T14:38:35;17.60;99.90
77277;DHT22;66330;52.166;9.978;2024-03-17T14:41:01;17.60;99.90
77277;DHT22;66330;52.166;9.978;2024-03-17T14:43:27;17.50;99.90
77277;DHT22;66330;52.166;9.978;2024-03-17T14:45:52;17.40;99.90
77277;DHT22;66330;52.166;9.978;2024-03-17T14:48:18;17.30;99.90
77277;DHT22;66330;52.166;9.978;2024-03-17T14:50:44;17.20;99.90
77277;DHT22;66330;52.166;9.978;2024-03-17T14:53:09;17.00;99.90
77277;DHT22;66330;52.166;9.978;2024-03-17T14:55:35;16.80;99.90
77277;DHT22;66330;52.166;9.978;2024-03-17T14:58:01;16.70;99.90
77277;DHT22;66330;52.166;9.978;2024-03-17T15:00:28;16.50;99.90
77277;DHT22;66330;52.166;9.978;2024-03-17T15:02:56;16.50;99.90
77277;DHT22;66330;52.166;9.978;2024-03-17T15:05:22;16.30;99.90
77277;DHT22;66330;52.166;9.978;2024-03-17T15:07:49;16.60;99.90
77277;DHT22;66330;52.166;9.978;2024-03-17T15:10:14;16.20;99.90
77277;DHT22;66330;52.166;9.978;2024-03-17T15:12:41;16.20;99.90
77277;DHT22;66330;52.166;9.978;2024-03-17T15:15:07;16.10;99.90
77277;DHT22;66330;52.166;9.978;2024-03-17T15:17:34;16.00;99.90
77277;DHT22;66330;52.166;9.978;2024-03-17T15:20:00;15.90;99.90
77277;DHT22;66330;52.166;9.978;2024-03-17T15:22:26;15.80;99.90
77277;DHT22;66330;52.166;9.978;2024-03-17T15:24:52;15.70;99.90
77277;DHT22;66330;52.166;9.978;2024-03-17T15:27:18;15.70;99.90
77277;DHT22;66330;52.166;9.978;2024-03-17T15:29:44;15.60;99.90
77277;DHT22;66330;52.166;9.978;2024-03-17T15:32:09;15.60;99.90
77277;DHT22;66330;52.166;9.978;2024-03-17T15:34:36;15.50;99.90
77277;DHT22;66330;52.166;9.978;2024-03-17T15:37:03;15.50;99.90
77277;DHT22;66330;52.166;9.978;2024-03-17T15:39:29;15.30;99.90
77277;DHT22;66330;52.166;9.978;2024-03-17T15:41:54;15.30;99.90
77277;DHT22;66330;52.166;9.978;2024-03-17T15:44:20;15.00;99.90
77277;DHT22;66330;52.166;9.978;2024-03-17T15:46:48;14.90;99.90
77277;DHT22;66330;52.166;9.978;2024-03-17T15:49:14;14.80;99.90
77277;DHT22;66330;52.166;9.978;2024-03-17T15:51:40;15.10;99.90
77277;DHT22;66330;52.166;9.978;2024-03-17T15:54:06;14.60;99.90
77277;DHT22;66330;52.166;9.978;2024-03-17T15:56:32;14.50;99.90
77277;DHT22;66330;52.166;9.978;2024-03-17T15:58:59;14.40;99.90
77277;DHT22;66330;52.166;9.978;2024-03-17T16:01:24;14.30;99.90
77277;DHT22;66330;52.166;9.978;2024-03-17T16:03:51;14.20;99.90
77277;DHT22;66330;52.166;9.978;2024-03-17T16:06:19;14.10;99.90
77277;DHT22;66330;52.166;9.978;2024-03-17T16:08:50;14.00;99.90